createdAt,value
2023-01-17T00:00:10.258Z,556.00
2023-01-17T00:01:10.156Z,558.00
2023-01-17T00:02:10.119Z,557.00
2023-01-17T00:03:10.095Z,554.00
2023-01-17T00:04:10.219Z,553.00
2023-01-17T00:05:10.034Z,550.00
2023-01-17T00:06:10.008Z,549.00
2023-01-17T00:07:09.969Z,546.00
2023-01-17T00:08:09.921Z,546.00
2023-01-17T00:09:09.885Z,544.00
2023-01-17T00:10:09.842Z,547.00
2023-01-17T00:11:09.825Z,548.00
2023-01-17T00:12:09.775Z,548.00
2023-01-17T00:13:09.738Z,548.00
2023-01-17T00:14:09.695Z,548.00
2023-01-17T00:15:09.665Z,550.00
2023-01-17T00:16:09.671Z,551.00
2023-01-17T00:17:09.605Z,551.00
2023-01-17T00:18:09.565Z,551.00
2023-01-17T00:19:09.535Z,549.00
2023-01-17T00:20:09.505Z,551.00
2023-01-17T00:21:09.461Z,550.00
2023-01-17T00:22:09.425Z,547.00
2023-01-17T00:23:09.401Z,545.00
2023-01-17T00:24:09.349Z,545.00
2023-01-17T00:25:09.328Z,547.00
2023-01-17T00:26:09.284Z,546.00
2023-01-17T00:27:09.235Z,545.00
2023-01-17T00:28:09.196Z,546.00
2023-01-17T00:29:09.159Z,548.00
2023-01-17T00:30:09.110Z,549.00
2023-01-17T00:31:09.169Z,547.00
2023-01-17T00:32:09.038Z,547.00
2023-01-17T00:33:09.000Z,548.00
2023-01-17T00:34:08.947Z,548.00
2023-01-17T00:35:08.918Z,547.00
2023-01-17T04:23:59.022Z,533.00
2023-01-17T04:24:58.980Z,535.00
2023-01-17T04:25:58.944Z,534.00
2023-01-17T04:26:58.905Z,532.00
2023-01-17T04:35:58.561Z,529.00
2023-01-17T04:36:58.509Z,529.00
2023-01-17T04:37:58.456Z,527.00
2023-01-17T04:38:58.408Z,523.00
2023-01-17T04:39:58.381Z,522.00
2023-01-17T04:40:58.337Z,520.00
2023-01-17T04:41:58.295Z,520.00
2023-01-17T04:42:58.332Z,521.00
2023-01-17T04:43:58.231Z,520.00
2023-01-17T04:44:58.170Z,521.00
2023-01-17T07:31:51.183Z,1318.00
2023-01-17T07:32:51.172Z,1327.00
2023-01-17T07:33:51.077Z,1333.00
2023-01-17T07:34:51.054Z,1329.00
2023-01-17T07:35:50.990Z,1336.00
2023-01-17T07:36:50.918Z,1337.00
2023-01-17T07:37:50.889Z,1338.00
2023-01-17T07:38:50.806Z,1343.00
2023-01-17T07:39:50.758Z,1347.00
2023-01-17T07:40:50.720Z,1348.00
2023-01-17T07:41:50.647Z,1354.00
2023-01-17T07:42:50.597Z,1380.00
2023-01-17T07:43:50.554Z,1372.00
2023-01-17T07:44:50.487Z,1293.00
2023-01-17T07:45:50.460Z,1187.00
2023-01-17T07:46:50.489Z,1153.00
2023-01-17T07:47:50.342Z,1177.00
2023-01-17T07:48:50.300Z,1195.00
2023-01-17T07:49:50.233Z,1216.00
2023-01-17T07:50:50.209Z,1298.00
2023-01-17T07:51:50.155Z,1305.00
2023-01-17T07:52:50.090Z,1312.00
2023-01-17T07:53:50.021Z,1356.00
2023-01-17T07:54:49.969Z,1401.00
2023-01-17T07:55:49.919Z,1401.00
2023-01-17T07:56:49.857Z,1415.00
2023-01-17T07:57:49.792Z,1454.00
2023-01-17T07:58:49.736Z,1450.00
2023-01-17T07:59:49.690Z,1460.00
2023-01-17T08:00:49.733Z,1462.00
2023-01-17T08:01:49.689Z,1470.00
2023-01-17T08:02:49.514Z,1481.00
2023-01-17T08:03:49.504Z,1486.00
2023-01-17T08:04:49.407Z,1484.00
2023-01-17T08:05:49.358Z,1491.00
2023-01-17T08:06:49.296Z,1503.00
2023-01-17T08:07:49.247Z,1505.00
2023-01-17T08:08:49.296Z,1509.00
2023-01-17T08:09:49.267Z,1531.00
2023-01-17T08:10:49.138Z,1542.00
2023-01-17T08:11:49.038Z,1544.00
2023-01-17T08:12:48.950Z,1547.00
2023-01-17T08:35:47.631Z,1635.00
2023-01-17T08:38:47.478Z,1646.00
2023-01-17T08:40:47.323Z,1624.00
2023-01-17T08:41:47.271Z,1498.00
2023-01-17T08:42:47.235Z,1494.00
2023-01-17T08:43:47.162Z,1507.00
2023-01-17T08:44:47.111Z,1565.00
2023-01-17T08:45:47.116Z,1546.00
2023-01-17T08:46:47.008Z,1542.00
2023-01-17T08:47:46.948Z,1540.00
2023-01-17T08:48:46.886Z,1542.00
2023-01-17T08:49:46.839Z,1548.00
2023-01-17T08:50:46.788Z,1555.00
2023-01-17T08:51:46.721Z,1562.00
2023-01-17T08:52:46.665Z,1557.00
2023-01-17T08:53:46.621Z,1556.00
2023-01-17T08:54:46.569Z,1563.00
2023-01-17T08:55:46.508Z,1576.00
2023-01-17T08:56:46.431Z,1583.00
2023-01-17T08:57:46.948Z,1591.00
2023-01-17T08:58:46.326Z,1633.00
2023-01-17T08:59:46.276Z,1667.00
2023-01-17T09:00:46.366Z,1654.00
2023-01-17T09:01:46.340Z,1571.00
2023-01-17T09:02:46.100Z,1556.00
2023-01-17T09:03:46.045Z,1539.00
2023-01-17T09:04:45.988Z,1523.00
2023-01-17T09:05:45.931Z,1502.00
2023-01-17T09:06:45.891Z,1468.00
2023-01-17T09:07:45.825Z,1443.00
2023-01-17T09:08:46.470Z,1433.00
2023-01-17T09:09:45.692Z,1416.00
2023-01-17T09:10:45.643Z,1401.00
2023-01-17T09:11:45.596Z,1378.00
2023-01-17T09:12:45.536Z,1353.00
2023-01-17T09:13:45.473Z,1336.00
2023-01-17T09:14:45.397Z,1313.00
2023-01-17T09:15:45.328Z,1293.00
2023-01-17T09:16:45.345Z,1286.00
2023-01-17T09:17:45.218Z,1287.00
2023-01-17T09:18:45.165Z,1283.00
2023-01-17T09:20:45.089Z,1310.00
2023-01-17T09:21:44.998Z,1296.00
2023-01-17T09:22:46.133Z,1288.00
2023-01-17T09:23:44.897Z,1275.00
2023-01-17T09:24:44.813Z,1251.00
2023-01-17T09:25:44.823Z,1242.00
2023-01-17T09:26:44.803Z,1230.00
2023-01-17T09:27:44.801Z,1223.00
2023-01-17T09:28:44.804Z,1212.00
2023-01-17T09:29:44.809Z,1208.00
2023-01-17T09:30:44.843Z,1205.00
2023-01-17T09:31:44.826Z,1208.00
2023-01-17T09:32:44.816Z,1222.00
2023-01-17T09:33:44.789Z,1234.00
2023-01-17T09:34:44.705Z,1230.00
2023-01-17T09:35:44.639Z,1220.00
2023-01-17T09:36:44.662Z,1213.00
2023-01-17T09:37:44.533Z,1201.00
2023-01-17T09:38:44.481Z,1192.00
2023-01-17T09:39:44.420Z,1180.00
2023-01-17T09:40:44.351Z,1163.00
2023-01-17T09:41:44.351Z,1152.00
2023-01-17T09:42:44.296Z,1141.00
2023-01-17T09:43:44.185Z,1130.00
2023-01-17T09:44:44.122Z,1119.00
2023-01-17T09:45:44.094Z,1106.00
2023-01-17T09:46:44.018Z,1097.00
2023-01-17T09:47:43.981Z,1098.00
2023-01-17T09:48:43.933Z,1109.00
2023-01-17T09:49:43.852Z,1148.00
2023-01-17T09:50:43.850Z,1163.00
2023-01-17T09:51:43.734Z,1188.00
2023-01-17T09:52:43.690Z,1214.00
2023-01-17T09:53:43.633Z,1252.00
2023-01-17T09:54:43.573Z,1271.00
2023-01-17T09:55:43.531Z,1304.00
2023-01-17T09:56:43.543Z,1320.00
2023-01-17T09:57:43.409Z,1319.00
2023-01-17T09:58:43.347Z,1193.00
2023-01-17T09:59:45.679Z,1075.00
2023-01-17T10:00:43.337Z,1052.00
2023-01-17T10:01:43.484Z,1049.00
2023-01-17T10:02:43.368Z,1017.00
2023-01-17T10:03:43.264Z,982.00
2023-01-17T10:04:43.161Z,971.00
2023-01-17T10:05:43.190Z,959.00
2023-01-17T10:06:43.196Z,894.00
2023-01-17T10:07:43.192Z,866.00
2023-01-17T10:08:43.202Z,852.00
2023-01-17T10:09:43.214Z,846.00
2023-01-17T10:10:43.274Z,845.00
2023-01-17T10:11:43.249Z,855.00
2023-01-17T10:12:43.272Z,837.00
2023-01-17T10:13:43.284Z,825.00
2023-01-17T10:14:43.301Z,814.00
2023-01-17T10:15:43.310Z,803.00
2023-01-17T10:16:43.345Z,805.00
2023-01-17T10:17:43.348Z,803.00
2023-01-17T10:18:43.350Z,798.00
2023-01-17T10:19:43.368Z,797.00
2023-01-17T10:20:43.385Z,796.00
2023-01-17T10:21:43.410Z,788.00
2023-01-17T10:22:43.411Z,771.00
2023-01-17T10:23:43.429Z,765.00
2023-01-17T10:24:43.448Z,759.00
2023-01-17T10:25:43.444Z,786.00
2023-01-17T10:26:43.405Z,820.00
2023-01-17T10:27:43.352Z,821.00
2023-01-17T10:28:43.316Z,814.00
2023-01-17T10:29:43.287Z,808.00
2023-01-17T10:30:43.313Z,800.00
2023-01-17T10:31:43.339Z,800.00
2023-01-17T10:32:43.115Z,806.00
2023-01-17T10:33:43.070Z,803.00
2023-01-17T10:34:43.080Z,800.00
2023-01-17T10:35:42.952Z,802.00
2023-01-17T10:36:42.904Z,803.00
2023-01-17T10:37:42.859Z,786.00
2023-01-17T10:38:42.874Z,787.00
2023-01-17T10:39:42.756Z,793.00
2023-01-17T10:40:42.718Z,774.00
2023-01-17T10:41:42.639Z,787.00
2023-01-17T10:42:42.594Z,795.00
2023-01-17T10:43:42.557Z,807.00
2023-01-17T10:44:42.530Z,812.00
2023-01-17T10:45:42.484Z,834.00
2023-01-17T10:46:42.411Z,886.00
2023-01-17T10:47:42.391Z,908.00
2023-01-17T10:48:42.306Z,926.00
2023-01-17T10:49:42.240Z,937.00
2023-01-17T10:50:42.194Z,944.00
2023-01-17T10:51:42.159Z,953.00
2023-01-17T10:52:42.126Z,963.00
2023-01-17T10:53:42.083Z,971.00
2023-01-17T10:54:42.046Z,977.00
2023-01-17T10:55:42.013Z,988.00
2023-01-17T10:56:41.969Z,1000.00
2023-01-17T10:57:41.924Z,1007.00
2023-01-17T10:58:41.897Z,1015.00
2023-01-17T10:59:41.817Z,1028.00
2023-01-17T11:00:41.793Z,1042.00
2023-01-17T11:01:41.840Z,1049.00
2023-01-17T11:02:41.705Z,1052.00
2023-01-17T11:03:41.625Z,1058.00
2023-01-17T11:04:41.570Z,1066.00
2023-01-17T11:05:41.514Z,1079.00
2023-01-17T11:06:57.335Z,1090.00
2023-01-17T11:07:42.408Z,1097.00
2023-01-17T11:08:41.385Z,1105.00
2023-01-17T11:09:41.304Z,1117.00
2023-01-17T11:10:41.255Z,1124.00
2023-01-17T11:11:41.203Z,1133.00
2023-01-17T11:12:41.137Z,1143.00
2023-01-17T11:13:41.089Z,1151.00
2023-01-17T11:14:41.033Z,1166.00
2023-01-17T11:15:41.014Z,1176.00
2023-01-17T11:16:40.920Z,1182.00
2023-01-17T11:17:40.871Z,1187.00
2023-01-17T11:18:40.835Z,1189.00
2023-01-17T11:19:40.771Z,1194.00
2023-01-17T11:20:40.707Z,1194.00
2023-01-17T11:21:40.686Z,1199.00
2023-01-17T11:22:40.608Z,1200.00
2023-01-17T11:23:40.552Z,1203.00
2023-01-17T11:24:40.483Z,1208.00
2023-01-17T11:25:40.424Z,1216.00
2023-01-17T11:26:40.372Z,1222.00
2023-01-17T11:27:40.343Z,1229.00
2023-01-17T11:28:40.267Z,1241.00
2023-01-17T11:29:40.208Z,1247.00
2023-01-17T11:30:40.173Z,1252.00
2023-01-17T11:31:40.099Z,1257.00
2023-01-17T11:32:40.031Z,1254.00
2023-01-17T11:33:39.971Z,1253.00
2023-01-17T11:34:39.908Z,1254.00
2023-01-17T11:35:39.864Z,1256.00
2023-01-17T11:36:39.798Z,1262.00
2023-01-17T11:37:39.727Z,1281.00
2023-01-17T11:38:39.691Z,1279.00
2023-01-17T11:39:39.610Z,1282.00
2023-01-17T11:40:39.549Z,1278.00
2023-01-17T11:41:39.496Z,1268.00
2023-01-17T11:42:39.449Z,1252.00
2023-01-17T11:43:39.404Z,1236.00
2023-01-17T11:44:39.325Z,1210.00
2023-01-17T11:45:39.261Z,1174.00
2023-01-17T11:46:39.413Z,1146.00
2023-01-17T11:47:39.145Z,1211.00
2023-01-17T11:48:39.097Z,1168.00
2023-01-17T11:49:39.048Z,1148.00
2023-01-17T11:50:39.069Z,1142.00
2023-01-17T11:51:38.946Z,1131.00
2023-01-17T13:28:33.730Z,814.00
2023-01-17T13:29:33.669Z,810.00
2023-01-17T13:30:33.612Z,807.00
2023-01-17T13:31:33.585Z,806.00
2023-01-17T13:32:33.498Z,804.00
2023-01-17T13:33:33.444Z,802.00
2023-01-17T13:34:33.388Z,802.00
2023-01-17T13:35:33.349Z,801.00
2023-01-17T13:36:33.275Z,797.00
2023-01-17T13:37:33.231Z,791.00
2023-01-17T13:38:33.168Z,784.00
2023-01-17T13:39:33.143Z,784.00
2023-01-17T13:40:33.069Z,787.00
2023-01-17T13:41:33.015Z,786.00
2023-01-17T13:42:32.970Z,784.00
2023-01-17T13:43:32.921Z,786.00
2023-01-17T13:44:32.859Z,785.00
2023-01-17T13:45:32.860Z,780.00
2023-01-17T13:46:32.749Z,776.00
2023-01-17T13:47:32.688Z,778.00
2023-01-17T13:48:32.633Z,777.00
2023-01-17T13:49:32.569Z,778.00
2023-01-17T13:50:32.510Z,774.00
2023-01-17T13:51:32.460Z,776.00
2023-01-17T13:52:33.597Z,774.00
2023-01-17T13:53:32.340Z,773.00
2023-01-17T13:54:32.284Z,768.00
2023-01-17T13:55:32.238Z,765.00
2023-01-17T13:56:32.178Z,767.00
2023-01-17T13:57:32.134Z,765.00
2023-01-17T13:58:32.060Z,763.00
2023-01-17T13:59:32.005Z,764.00
2023-01-17T14:00:31.950Z,768.00
2023-01-17T14:01:32.000Z,768.00
2023-01-17T14:02:31.832Z,771.00
2023-01-17T14:03:31.781Z,771.00
2023-01-17T14:04:31.741Z,771.00
2023-01-17T14:05:31.663Z,768.00
2023-01-17T14:06:31.607Z,766.00
2023-01-17T14:07:31.555Z,765.00
2023-01-17T14:08:31.507Z,762.00
2023-01-17T14:09:31.450Z,762.00
2023-01-17T14:10:31.388Z,761.00
2023-01-17T14:11:31.361Z,761.00
2023-01-17T14:12:31.309Z,759.00
2023-01-17T14:13:31.245Z,759.00
2023-01-17T14:14:31.179Z,756.00
2023-01-17T14:15:31.129Z,753.00
2023-01-17T14:16:31.154Z,750.00
2023-01-17T14:17:31.026Z,749.00
2023-01-17T14:18:30.961Z,748.00
2023-01-17T14:19:30.917Z,748.00
2023-01-17T14:20:30.853Z,746.00
2023-01-17T14:21:30.811Z,744.00
2023-01-17T14:22:30.754Z,743.00
2023-01-17T14:23:30.685Z,743.00
2023-01-17T14:24:30.627Z,743.00
2023-01-17T14:25:30.581Z,741.00
2023-01-17T14:26:30.521Z,741.00
2023-01-17T14:27:30.481Z,740.00
2023-01-17T14:28:30.430Z,738.00
2023-01-17T14:29:30.372Z,735.00
2023-01-17T14:30:30.319Z,733.00
2023-01-17T14:31:30.268Z,731.00
2023-01-17T14:32:30.206Z,731.00
2023-01-17T14:33:30.162Z,729.00
2023-01-17T14:34:30.087Z,728.00
2023-01-17T14:35:30.049Z,725.00
2023-01-17T14:36:29.984Z,725.00
2023-01-17T14:37:29.939Z,725.00
2023-01-17T14:38:29.897Z,724.00
2023-01-17T14:39:29.832Z,725.00
2023-01-17T14:40:29.785Z,726.00
2023-01-17T14:41:29.722Z,725.00
2023-01-17T14:42:29.666Z,724.00
2023-01-17T14:43:29.612Z,721.00
2023-01-17T14:44:29.563Z,720.00
2023-01-17T14:45:29.530Z,722.00
2023-01-17T14:46:29.442Z,721.00
2023-01-17T14:47:29.401Z,721.00
2023-01-17T14:48:29.333Z,717.00
2023-01-17T14:49:29.281Z,715.00
2023-01-17T14:50:29.237Z,713.00
2023-01-17T14:51:29.169Z,711.00
2023-01-17T14:52:29.120Z,712.00
2023-01-17T14:53:29.074Z,711.00
2023-01-17T14:54:29.010Z,710.00
2023-01-17T14:55:28.947Z,709.00
2023-01-17T14:56:28.921Z,707.00
2023-01-17T14:57:28.844Z,706.00
2023-01-17T14:58:28.816Z,708.00
2023-01-17T14:59:28.739Z,706.00
2023-01-17T15:00:28.691Z,704.00
2023-01-17T15:01:28.735Z,704.00
2023-01-17T15:02:28.850Z,703.00
2023-01-17T15:03:28.616Z,703.00
2023-01-17T15:04:28.449Z,702.00
2023-01-17T15:05:28.407Z,701.00
2023-01-17T15:06:28.340Z,700.00
2023-01-17T15:07:28.293Z,699.00
2023-01-17T15:08:28.266Z,699.00
2023-01-17T15:09:28.204Z,697.00
2023-01-17T15:10:28.131Z,693.00
2023-01-17T15:11:28.095Z,689.00
2023-01-17T15:12:28.029Z,688.00
2023-01-17T15:13:43.142Z,688.00
2023-01-17T15:14:28.920Z,687.00
2023-01-17T15:15:27.866Z,688.00
2023-01-17T15:16:27.874Z,685.00
2023-01-17T15:17:27.786Z,686.00
2023-01-17T15:18:27.770Z,686.00
2023-01-17T15:19:27.656Z,685.00
2023-01-17T15:20:27.614Z,688.00
2023-01-17T15:21:27.575Z,688.00
2023-01-17T15:22:27.515Z,686.00
2023-01-17T15:23:27.480Z,688.00
2023-01-17T15:24:27.411Z,686.00
2023-01-17T15:25:27.393Z,686.00
2023-01-17T15:26:27.317Z,686.00
2023-01-17T15:27:27.263Z,685.00
2023-01-17T15:28:27.217Z,683.00
2023-01-17T15:29:27.156Z,681.00
2023-01-17T15:30:27.139Z,681.00
2023-01-17T15:31:27.082Z,678.00
2023-01-17T15:32:27.015Z,679.00
2023-01-17T15:33:26.948Z,678.00
2023-01-17T15:34:26.903Z,677.00
2023-01-17T15:35:26.842Z,673.00
2023-01-17T15:36:26.790Z,675.00
2023-01-17T15:37:26.751Z,672.00
2023-01-17T15:38:26.701Z,674.00
2023-01-17T15:39:26.625Z,674.00
2023-01-17T15:40:26.585Z,675.00
2023-01-17T15:41:26.521Z,671.00
2023-01-17T15:42:26.486Z,668.00
2023-01-17T15:43:26.423Z,665.00
2023-01-17T15:44:31.146Z,664.00
2023-01-17T15:45:27.366Z,661.00
2023-01-17T15:46:26.324Z,661.00
2023-01-17T15:47:26.248Z,660.00
2023-01-17T15:48:26.173Z,659.00
2023-01-17T15:49:26.127Z,661.00
2023-01-17T15:50:26.071Z,661.00
2023-01-17T15:51:26.022Z,661.00
2023-01-17T15:52:25.977Z,663.00
2023-01-17T15:53:25.906Z,663.00
2023-01-17T15:54:25.876Z,661.00
2023-01-17T15:55:25.838Z,662.00
2023-01-17T15:56:25.738Z,661.00
2023-01-17T15:57:25.694Z,660.00
2023-01-17T15:58:25.625Z,657.00
2023-01-17T15:59:25.571Z,657.00
2023-01-17T16:00:25.519Z,655.00
2023-01-17T16:01:25.583Z,656.00
2023-01-17T16:02:25.432Z,653.00
2023-01-17T16:03:25.369Z,652.00
2023-01-17T16:04:25.295Z,655.00
2023-01-17T16:05:25.228Z,655.00
2023-01-17T16:06:25.190Z,655.00
2023-01-17T16:07:25.127Z,656.00
2023-01-17T16:08:25.088Z,655.00
2023-01-17T16:09:25.032Z,655.00
2023-01-17T16:10:24.962Z,652.00
2023-01-17T16:11:24.932Z,651.00
2023-01-17T16:12:24.867Z,649.00
2023-01-17T16:13:24.828Z,649.00
2023-01-17T16:14:24.765Z,649.00
2023-01-17T16:15:24.705Z,649.00
2023-01-17T16:16:24.829Z,651.00
2023-01-17T16:17:24.619Z,653.00
2023-01-17T16:18:24.566Z,652.00
2023-01-17T16:19:24.519Z,649.00
2023-01-17T16:20:24.470Z,650.00
2023-01-17T16:21:24.432Z,647.00
2023-01-17T16:22:24.376Z,647.00
2023-01-17T16:23:24.324Z,646.00
2023-01-17T16:24:24.268Z,648.00
2023-01-17T16:25:24.212Z,649.00
2023-01-17T16:26:24.211Z,648.00
2023-01-17T16:27:24.107Z,650.00
2023-01-17T16:28:24.061Z,649.00
2023-01-17T16:29:24.004Z,647.00
2023-01-17T16:30:23.951Z,649.00
2023-01-17T16:31:23.943Z,649.00
2023-01-17T16:32:23.845Z,646.00
2023-01-17T16:33:23.791Z,646.00
2023-01-17T16:34:23.747Z,645.00
2023-01-17T16:35:23.696Z,645.00
2023-01-17T16:36:23.636Z,646.00
2023-01-17T16:37:23.579Z,647.00
2023-01-17T16:38:23.566Z,644.00
2023-01-17T16:39:23.488Z,643.00
2023-01-17T16:40:23.481Z,642.00
2023-01-17T16:41:23.396Z,642.00
2023-01-17T16:42:23.344Z,643.00
2023-01-17T16:43:23.278Z,640.00
2023-01-17T16:44:23.314Z,637.00
2023-01-17T16:45:23.189Z,636.00
2023-01-17T16:46:23.182Z,635.00
2023-01-17T16:47:23.086Z,633.00
2023-01-17T16:48:23.010Z,630.00
2023-01-17T16:49:22.982Z,630.00
2023-01-17T16:50:22.916Z,629.00
2023-01-17T16:51:22.857Z,628.00
2023-01-17T16:52:22.812Z,629.00
2023-01-17T16:53:24.727Z,628.00
2023-01-17T16:54:22.725Z,628.00
2023-01-17T16:55:22.676Z,629.00
2023-01-17T16:56:22.619Z,630.00
2023-01-17T16:57:22.585Z,628.00
2023-01-17T16:58:22.517Z,629.00
2023-01-17T16:59:22.486Z,628.00
2023-01-17T17:00:22.439Z,626.00
2023-01-17T17:01:22.593Z,624.00
2023-01-17T17:02:22.369Z,622.00
2023-01-17T17:03:22.293Z,620.00
2023-01-17T17:04:22.255Z,619.00
2023-01-17T17:05:22.192Z,621.00
2023-01-17T17:06:22.164Z,624.00
2023-01-17T17:07:22.126Z,622.00
2023-01-17T17:08:22.064Z,621.00
2023-01-17T17:09:22.010Z,621.00
2023-01-17T17:10:22.001Z,624.00
2023-01-17T17:11:21.969Z,625.00
2023-01-17T17:12:21.993Z,627.00
2023-01-17T17:13:21.995Z,623.00
2023-01-17T17:14:22.036Z,620.00
2023-01-17T17:15:22.038Z,623.00
2023-01-17T17:16:22.072Z,623.00
2023-01-17T17:17:22.078Z,622.00
2023-01-17T17:18:22.085Z,621.00
2023-01-17T17:19:22.080Z,619.00
2023-01-17T17:20:23.955Z,620.00
2023-01-17T17:21:22.036Z,620.00
2023-01-17T17:22:21.982Z,620.00
2023-01-17T17:23:21.968Z,624.00
2023-01-17T17:24:21.907Z,622.00
2023-01-17T17:25:21.853Z,620.00
2023-01-17T17:26:21.811Z,621.00
2023-01-17T17:27:21.747Z,621.00
2023-01-17T17:28:21.713Z,619.00
2023-01-17T17:29:21.663Z,618.00
2023-01-17T17:30:21.626Z,617.00
2023-01-17T17:31:21.644Z,615.00
2023-01-17T17:32:21.566Z,614.00
2023-01-17T17:33:21.481Z,612.00
2023-01-17T17:34:21.445Z,612.00
2023-01-17T17:35:21.386Z,612.00
2023-01-17T17:36:21.354Z,612.00
2023-01-17T17:37:21.333Z,614.00
2023-01-17T17:38:21.283Z,614.00
2023-01-17T17:39:21.244Z,610.00
2023-01-17T17:40:21.234Z,610.00
2023-01-17T17:41:21.158Z,611.00
2023-01-17T17:42:21.125Z,611.00
2023-01-17T17:43:21.091Z,608.00
2023-01-17T17:44:21.067Z,609.00
2023-01-17T17:45:21.021Z,610.00
2023-01-17T17:46:21.074Z,609.00
2023-01-17T17:47:20.929Z,607.00
2023-01-17T17:48:20.900Z,608.00
2023-01-17T17:49:20.857Z,608.00
2023-01-17T17:50:20.823Z,608.00
2023-01-17T17:51:20.764Z,607.00
2023-01-17T17:52:20.724Z,604.00
2023-01-17T17:53:20.716Z,604.00
2023-01-17T17:54:20.644Z,603.00
2023-01-17T17:55:20.594Z,602.00
2023-01-17T17:56:20.564Z,604.00
2023-01-17T17:57:20.540Z,604.00
2023-01-17T17:58:20.505Z,605.00
2023-01-17T17:59:20.449Z,605.00
2023-01-17T18:00:20.410Z,607.00
2023-01-17T18:01:20.465Z,609.00
2023-01-17T18:02:20.333Z,607.00
2023-01-17T18:03:20.268Z,605.00
2023-01-17T18:04:20.232Z,603.00
2023-01-17T18:05:20.187Z,603.00
2023-01-17T18:06:20.171Z,604.00
2023-01-17T18:07:20.122Z,604.00
2023-01-17T18:08:20.075Z,603.00
2023-01-17T18:09:20.074Z,602.00
2023-01-17T18:10:19.973Z,601.00
2023-01-17T18:11:19.944Z,600.00
2023-01-17T18:12:20.832Z,600.00
2023-01-17T18:13:19.869Z,602.00
2023-01-17T18:14:19.856Z,601.00
2023-01-17T18:15:19.804Z,596.00
2023-01-17T18:16:19.834Z,597.00
2023-01-17T18:17:19.702Z,598.00
2023-01-17T18:18:19.678Z,596.00
2023-01-17T18:19:19.635Z,594.00
2023-01-17T18:20:19.586Z,593.00
2023-01-17T18:21:19.551Z,592.00
2023-01-17T18:22:19.514Z,591.00
2023-01-17T18:23:19.449Z,593.00
2023-01-17T18:24:19.415Z,591.00
2023-01-17T18:25:19.419Z,593.00
2023-01-17T18:26:19.354Z,592.00
2023-01-17T18:27:19.285Z,593.00
2023-01-17T18:28:19.278Z,593.00
2023-01-17T18:29:19.221Z,593.00
2023-01-17T18:30:19.175Z,594.00
2023-01-17T18:31:19.202Z,592.00
2023-01-17T18:32:19.110Z,591.00
2023-01-17T18:33:19.062Z,592.00
2023-01-17T18:34:19.043Z,595.00
2023-01-17T18:35:18.982Z,593.00
2023-01-17T18:36:18.951Z,593.00
2023-01-17T23:27:15.986Z,557.00
2023-01-17T23:28:15.996Z,556.00
2023-01-17T23:29:16.017Z,557.00
2023-01-17T23:30:16.076Z,557.00
2023-01-17T23:31:16.098Z,555.00
2023-01-17T23:32:16.056Z,555.00
2023-01-17T23:33:16.107Z,553.00
2023-01-17T23:34:16.076Z,555.00
2023-01-17T23:35:16.095Z,555.00
2023-01-17T23:36:16.098Z,556.00
2023-01-17T23:37:16.111Z,555.00
2023-01-17T23:38:16.149Z,558.00
2023-01-17T23:39:16.134Z,558.00
2023-01-17T23:40:16.172Z,559.00
2023-01-17T23:41:16.173Z,558.00
2023-01-17T23:42:16.211Z,560.00
2023-01-17T23:43:16.176Z,558.00
2023-01-17T23:44:16.185Z,557.00
2023-01-17T23:45:16.194Z,557.00
2023-01-17T23:46:16.209Z,558.00
2023-01-17T23:47:16.220Z,558.00
2023-01-17T23:48:16.224Z,556.00
2023-01-17T23:49:16.220Z,556.00
2023-01-17T23:50:16.226Z,555.00
2023-01-17T23:51:16.250Z,557.00
2023-01-17T23:52:16.263Z,555.00
2023-01-17T23:53:16.270Z,554.00
2023-01-17T23:54:16.278Z,553.00
2023-01-17T23:55:16.285Z,552.00
2023-01-17T23:56:16.302Z,551.00
2023-01-17T23:57:16.305Z,552.00
2023-01-17T23:58:16.336Z,551.00
2023-01-17T23:59:16.354Z,550.00
